createdAt,value
2018-12-24T00:00:43.959Z,0.70
2018-12-24T00:03:09.938Z,0.63
2018-12-24T00:05:36.655Z,0.60
2018-12-24T00:08:03.003Z,0.67
2018-12-24T00:10:28.959Z,0.80
2018-12-24T00:12:54.989Z,0.83
2018-12-24T00:15:20.951Z,0.90
2018-12-24T00:17:46.947Z,1.00
2018-12-24T00:20:12.910Z,0.70
2018-12-24T00:22:38.926Z,0.70
2018-12-24T00:25:04.907Z,0.53
2018-12-24T00:27:30.900Z,0.60
2018-12-24T00:29:56.867Z,0.83
2018-12-24T00:32:23.639Z,0.70
2018-12-24T00:34:49.600Z,0.70
2018-12-24T00:37:15.617Z,0.43
2018-12-24T00:39:41.600Z,1.37
2018-12-24T00:42:15.608Z,0.90
2018-12-24T00:44:33.657Z,0.80
2018-12-24T00:46:59.684Z,0.93
2018-12-24T00:49:25.689Z,1.03
2018-12-24T00:51:51.705Z,1.30
2018-12-24T00:54:18.441Z,1.40
2018-12-24T00:56:45.169Z,1.20
2018-12-24T00:59:11.171Z,1.37
2018-12-24T01:01:37.129Z,1.47
2018-12-24T01:04:03.896Z,1.67
2018-12-24T01:06:29.862Z,1.80
2018-12-24T01:08:55.828Z,2.37
2018-12-24T01:11:21.823Z,2.20
2018-12-24T01:13:47.855Z,2.67
2018-12-24T01:16:13.851Z,2.93
2018-12-24T01:18:39.824Z,2.27
2018-12-24T01:21:05.808Z,1.70
2018-12-24T01:23:31.764Z,1.87
2018-12-24T01:25:57.753Z,1.70
2018-12-24T01:28:23.692Z,1.90
2018-12-24T01:30:50.446Z,1.60
2018-12-24T01:33:17.277Z,1.70
2018-12-24T01:35:43.350Z,1.50
2018-12-24T01:38:09.299Z,1.50
2018-12-24T01:40:35.293Z,1.60
2018-12-24T01:43:01.264Z,1.60
2018-12-24T01:45:27.256Z,1.90
2018-12-24T01:47:53.241Z,2.10
2018-12-24T01:50:19.222Z,2.27
2018-12-24T01:52:45.235Z,1.80
2018-12-24T01:55:11.210Z,2.47
2018-12-24T01:57:37.214Z,1.83
2018-12-24T02:00:03.181Z,1.90
2018-12-24T02:02:29.173Z,1.87
2018-12-24T02:04:55.130Z,1.80
2018-12-24T02:07:21.102Z,2.30
2018-12-24T02:09:47.792Z,1.53
2018-12-24T02:12:13.783Z,1.93
2018-12-24T02:14:40.497Z,2.00
2018-12-24T02:17:06.448Z,1.70
2018-12-24T02:19:32.451Z,1.40
2018-12-24T02:21:59.180Z,1.10
2018-12-24T02:24:25.161Z,1.40
2018-12-24T02:26:51.128Z,1.63
2018-12-24T02:29:17.545Z,1.40
2018-12-24T02:31:44.586Z,1.37
2018-12-24T02:34:10.552Z,0.90
2018-12-24T02:36:37.271Z,1.07
2018-12-24T02:39:03.225Z,1.20
2018-12-24T02:41:29.200Z,1.17
2018-12-24T02:43:55.157Z,1.10
2018-12-24T02:46:21.887Z,1.03
2018-12-24T02:48:48.582Z,0.87
2018-12-24T02:51:14.569Z,1.20
2018-12-24T02:53:40.537Z,1.03
2018-12-24T02:56:06.528Z,1.40
2018-12-24T02:58:32.502Z,1.37
2018-12-24T03:00:58.498Z,1.30
2018-12-24T03:03:24.444Z,1.40
2018-12-24T03:05:50.392Z,1.23
2018-12-24T03:08:17.120Z,1.43
2018-12-24T03:10:43.064Z,1.40
2018-12-24T03:13:09.778Z,1.43
2018-12-24T03:15:35.726Z,1.50
2018-12-24T03:18:02.447Z,1.03
2018-12-24T03:20:29.139Z,1.20
2018-12-24T03:22:55.084Z,1.30
2018-12-24T03:25:21.061Z,1.13
2018-12-24T03:27:47.012Z,1.00
2018-12-24T03:30:12.977Z,1.50
2018-12-24T03:32:39.682Z,1.13
2018-12-24T03:35:05.669Z,1.50
2018-12-24T03:37:31.619Z,1.50
2018-12-24T03:39:57.560Z,0.90
2018-12-24T03:42:23.561Z,0.87
2018-12-24T03:44:49.507Z,0.90
2018-12-24T03:47:15.490Z,1.00
2018-12-24T03:49:41.448Z,1.10
2018-12-24T03:52:07.448Z,1.00
2018-12-24T03:54:33.390Z,1.30
2018-12-24T03:56:59.352Z,1.03
2018-12-24T03:59:26.070Z,1.40
2018-12-24T04:01:52.047Z,0.83
2018-12-24T04:04:18.050Z,1.27
2018-12-24T04:06:44.027Z,0.97
2018-12-24T04:09:10.010Z,1.47
2018-12-24T04:11:35.991Z,1.23
2018-12-24T04:14:02.735Z,1.37
2018-12-24T04:16:28.680Z,1.60
2018-12-24T04:18:55.392Z,1.50
2018-12-24T04:21:22.778Z,1.10
2018-12-24T04:23:47.401Z,1.07
2018-12-24T04:26:13.365Z,1.43
2018-12-24T04:28:40.086Z,1.47
2018-12-24T04:31:06.158Z,1.03
2018-12-24T04:33:32.093Z,1.03
2018-12-24T04:35:58.078Z,1.50
2018-12-24T04:38:24.759Z,1.20
2018-12-24T04:40:50.846Z,1.50
2018-12-24T04:43:16.758Z,0.90
2018-12-24T04:45:43.508Z,1.07
2018-12-24T04:48:10.206Z,1.10
2018-12-24T04:50:36.169Z,1.70
2018-12-24T04:53:02.891Z,1.50
2018-12-24T04:55:28.865Z,1.17
2018-12-24T04:57:54.850Z,1.90
2018-12-24T05:00:21.599Z,1.30
2018-12-24T05:02:48.333Z,1.53
2018-12-24T05:05:15.053Z,1.40
2018-12-24T05:07:41.066Z,1.53
2018-12-24T05:10:07.035Z,1.50
2018-12-24T05:12:33.774Z,1.43
2018-12-24T05:14:59.738Z,1.77
2018-12-24T05:17:25.739Z,1.07
2018-12-24T05:19:51.708Z,1.37
2018-12-24T05:22:17.685Z,1.47
2018-12-24T05:24:43.661Z,1.50
2018-12-24T05:27:09.629Z,1.90
2018-12-24T05:29:35.637Z,1.77
2018-12-24T05:32:02.336Z,1.53
2018-12-24T05:34:28.337Z,1.57
2018-12-24T05:36:54.650Z,1.30
2018-12-24T05:39:20.629Z,1.60
2018-12-24T05:41:46.629Z,1.47
2018-12-24T05:44:12.612Z,1.83
2018-12-24T05:46:38.616Z,1.00
2018-12-24T05:49:05.316Z,1.13
2018-12-24T05:51:31.322Z,1.60
2018-12-24T05:53:57.311Z,1.53
2018-12-24T05:56:23.286Z,1.33
2018-12-24T05:58:49.300Z,1.60
2018-12-24T06:01:15.242Z,2.20
2018-12-24T06:03:41.243Z,1.40
2018-12-24T06:06:07.217Z,1.73
2018-12-24T06:08:33.199Z,1.27
2018-12-24T06:10:59.199Z,1.27
2018-12-24T06:13:25.156Z,1.50
2018-12-24T06:15:51.152Z,1.47
2018-12-24T06:18:17.119Z,1.00
2018-12-24T06:20:43.862Z,1.33
2018-12-24T06:23:10.562Z,1.80
2018-12-24T06:25:37.303Z,1.83
2018-12-24T06:28:03.246Z,1.70
2018-12-24T06:30:29.207Z,1.70
2018-12-24T06:32:55.935Z,2.10
2018-12-24T06:35:22.647Z,2.30
2018-12-24T06:37:48.624Z,2.27
2018-12-24T06:40:14.564Z,1.87
2018-12-24T06:42:40.538Z,2.47
2018-12-24T06:45:06.499Z,3.10
2018-12-24T06:47:32.475Z,3.80
2018-12-24T06:49:58.426Z,2.77
2018-12-24T06:52:24.423Z,2.90
2018-12-24T06:54:51.137Z,2.87
2018-12-24T06:57:17.127Z,3.00
2018-12-24T06:59:43.115Z,3.10
2018-12-24T07:02:09.056Z,2.70
2018-12-24T07:04:35.049Z,2.50
2018-12-24T07:07:01.040Z,2.37
2018-12-24T07:09:27.026Z,2.40
2018-12-24T07:11:53.012Z,2.50
2018-12-24T07:14:19.079Z,2.30
2018-12-24T07:16:45.032Z,2.00
2018-12-24T07:19:10.987Z,2.33
2018-12-24T07:21:36.960Z,2.50
2018-12-24T07:24:02.907Z,1.90
2018-12-24T07:26:28.895Z,2.23
2018-12-24T07:28:59.029Z,2.13
2018-12-24T07:31:20.853Z,2.10
2018-12-24T07:33:46.853Z,2.33
2018-12-24T07:36:12.811Z,2.40
2018-12-24T07:38:38.797Z,2.23
2018-12-24T07:41:04.765Z,1.97
2018-12-24T07:43:30.735Z,2.50
2018-12-24T07:45:57.430Z,2.10
2018-12-24T07:48:23.504Z,2.43
2018-12-24T07:50:49.500Z,2.10
2018-12-24T07:53:16.210Z,2.30
2018-12-24T07:55:42.189Z,2.00
2018-12-24T07:58:08.153Z,2.30
2018-12-24T08:00:34.137Z,2.30
2018-12-24T08:03:00.087Z,1.90
2018-12-24T08:05:26.095Z,1.90
2018-12-24T08:07:52.068Z,1.40
2018-12-24T08:10:18.059Z,1.97
2018-12-24T08:12:44.008Z,2.03
2018-12-24T08:15:09.973Z,1.80
2018-12-24T08:17:36.684Z,1.80
2018-12-24T08:20:02.642Z,1.97
2018-12-24T08:22:28.632Z,1.93
2018-12-24T08:24:54.577Z,1.83
2018-12-24T08:27:21.286Z,1.70
2018-12-24T08:29:47.230Z,1.97
2018-12-24T08:32:13.961Z,1.40
2018-12-24T08:34:39.905Z,1.53
2018-12-24T08:37:06.589Z,1.80
2018-12-24T08:39:32.567Z,1.77
2018-12-24T08:41:58.505Z,1.40
2018-12-24T08:44:24.503Z,2.10
2018-12-24T08:46:51.182Z,1.53
2018-12-24T08:49:17.160Z,1.80
2018-12-24T08:51:43.844Z,1.70
2018-12-24T08:54:09.844Z,1.60
2018-12-24T08:56:35.793Z,1.57
2018-12-24T08:59:01.759Z,1.10
2018-12-24T09:01:28.462Z,1.87
2018-12-24T09:03:54.453Z,1.43
2018-12-24T09:06:20.385Z,1.73
2018-12-24T09:08:46.333Z,2.23
2018-12-24T09:11:12.303Z,1.50
2018-12-24T09:13:39.014Z,1.93
2018-12-24T09:16:04.992Z,1.60
2018-12-24T09:18:30.961Z,2.00
2018-12-24T09:20:56.943Z,2.33
2018-12-24T09:23:22.894Z,3.30
2018-12-24T09:25:48.885Z,2.47
2018-12-24T09:28:15.608Z,2.93
2018-12-24T09:30:41.564Z,2.07
2018-12-24T09:33:07.574Z,2.20
2018-12-24T09:35:33.533Z,1.60
2018-12-24T09:37:59.526Z,1.60
2018-12-24T09:40:25.517Z,1.17
2018-12-24T09:42:51.800Z,1.30
2018-12-24T09:45:18.236Z,1.53
2018-12-24T09:47:44.200Z,1.80
2018-12-24T09:50:12.234Z,1.60
2018-12-24T09:52:36.938Z,1.30
2018-12-24T09:55:02.896Z,1.43
2018-12-24T09:57:28.843Z,1.37
2018-12-24T09:59:54.817Z,1.50
2018-12-24T10:02:21.527Z,1.43
2018-12-24T10:04:47.517Z,1.47
2018-12-24T10:07:13.473Z,1.20
2018-12-24T10:09:39.446Z,1.60
2018-12-24T10:12:05.432Z,1.77
2018-12-24T10:14:32.180Z,1.27
2018-12-24T10:17:00.642Z,1.50
2018-12-24T10:19:24.953Z,1.30
2018-12-24T10:21:51.711Z,1.70
2018-12-24T10:24:17.670Z,1.33
2018-12-24T10:26:43.664Z,1.50
2018-12-24T10:29:09.631Z,1.10
2018-12-24T10:31:35.616Z,1.50
2018-12-24T10:34:01.581Z,1.13
2018-12-24T10:36:27.616Z,1.47
2018-12-24T10:38:53.575Z,1.43
2018-12-24T10:41:19.550Z,1.20
2018-12-24T10:43:45.529Z,1.17
2018-12-24T10:46:11.498Z,1.20
2018-12-24T10:48:37.511Z,1.40
2018-12-24T10:51:03.472Z,1.70
2018-12-24T10:53:30.306Z,1.60
2018-12-24T10:55:56.207Z,1.57
2018-12-24T10:58:22.152Z,1.40
2018-12-24T11:00:48.880Z,1.40
2018-12-24T11:03:15.593Z,1.33
2018-12-24T11:05:41.580Z,1.90
2018-12-24T11:08:07.525Z,1.30
2018-12-24T11:10:33.505Z,1.40
2018-12-24T11:13:00.202Z,1.60
2018-12-24T11:15:26.160Z,1.53
2018-12-24T11:17:52.905Z,1.47
2018-12-24T11:20:19.600Z,1.50
2018-12-24T11:22:45.590Z,1.60
2018-12-24T11:25:11.541Z,1.40
2018-12-24T11:27:37.521Z,1.20
2018-12-24T11:30:04.224Z,1.50
2018-12-24T11:32:30.269Z,1.27
2018-12-24T11:34:56.992Z,1.73
2018-12-24T11:37:22.963Z,1.30
2018-12-24T11:39:48.949Z,1.50
2018-12-24T11:42:14.909Z,1.83
2018-12-24T11:44:40.893Z,1.57
2018-12-24T11:47:06.856Z,1.77
2018-12-24T11:49:32.834Z,1.80
2018-12-24T11:51:59.221Z,1.50
2018-12-24T11:54:24.862Z,1.50
2018-12-24T11:56:50.838Z,1.53
2018-12-24T11:59:17.595Z,1.60
2018-12-24T12:01:43.616Z,1.90
2018-12-24T12:04:09.575Z,1.73
2018-12-24T12:06:35.586Z,1.40
2018-12-24T12:09:01.568Z,1.50
2018-12-24T12:11:28.315Z,1.37
2018-12-24T12:13:54.293Z,1.37
2018-12-24T12:16:20.298Z,1.60
2018-12-24T12:18:46.284Z,0.80
2018-12-24T12:21:12.265Z,1.53
2018-12-24T12:23:38.204Z,1.43
2018-12-24T12:26:04.145Z,1.30
2018-12-24T12:28:30.160Z,1.17
2018-12-24T12:30:56.878Z,1.70
2018-12-24T12:33:22.876Z,1.57
2018-12-24T12:35:48.844Z,1.60
2018-12-24T12:38:15.575Z,1.40
2018-12-24T12:40:42.301Z,1.67
2018-12-24T12:43:08.251Z,1.60
2018-12-24T12:45:34.974Z,1.90
2018-12-24T12:48:00.918Z,1.77
2018-12-24T12:50:27.622Z,1.60
2018-12-24T12:52:53.583Z,1.10
2018-12-24T12:55:19.567Z,1.30
2018-12-24T12:57:45.540Z,1.33
2018-12-24T13:00:11.495Z,1.07
2018-12-24T13:02:37.501Z,1.10
2018-12-24T13:05:03.472Z,1.20
2018-12-24T13:07:29.443Z,1.40
2018-12-24T13:09:55.391Z,1.10
2018-12-24T13:12:21.383Z,1.20
2018-12-24T13:14:47.332Z,1.30
2018-12-24T13:17:13.284Z,1.23
2018-12-24T13:19:39.255Z,1.60
2018-12-24T13:22:05.237Z,1.53
2018-12-24T13:24:31.958Z,1.60
2018-12-24T13:26:57.935Z,1.33
2018-12-24T13:29:23.991Z,1.40
2018-12-24T13:31:49.936Z,1.33
2018-12-24T13:34:15.889Z,1.50
2018-12-24T13:36:41.865Z,1.47
2018-12-24T13:39:07.829Z,1.10
2018-12-24T13:41:34.535Z,1.10
2018-12-24T13:44:00.485Z,1.40
2018-12-24T13:46:27.211Z,1.13
2018-12-24T13:48:53.917Z,0.90
2018-12-24T13:51:19.867Z,1.27
2018-12-24T13:53:45.853Z,1.03
2018-12-24T13:56:11.828Z,1.00
2018-12-24T13:58:38.558Z,0.93
2018-12-24T14:01:05.292Z,0.83
2018-12-24T14:03:32.022Z,0.80
2018-12-24T14:05:57.970Z,1.03
2018-12-24T14:08:24.692Z,0.90
2018-12-24T14:10:50.649Z,1.20
2018-12-24T14:13:16.629Z,1.00
2018-12-24T14:15:42.572Z,0.93
2018-12-24T14:18:09.268Z,1.07
2018-12-24T14:20:35.313Z,1.10
2018-12-24T14:23:01.251Z,1.00
2018-12-24T14:25:27.226Z,0.90
2018-12-24T14:27:53.169Z,0.90
2018-12-24T14:30:19.135Z,0.97
2018-12-24T14:32:45.111Z,0.90
2018-12-24T14:35:11.056Z,1.00
2018-12-24T14:37:37.031Z,1.00
2018-12-24T14:40:02.983Z,0.80
2018-12-24T14:42:28.974Z,0.80
2018-12-24T14:44:54.927Z,1.10
2018-12-24T14:47:20.869Z,0.90
2018-12-24T14:49:46.849Z,0.90
2018-12-24T14:52:12.802Z,1.10
2018-12-24T14:54:38.768Z,1.40
2018-12-24T14:57:04.726Z,1.30
2018-12-24T14:59:30.719Z,1.13
2018-12-24T15:01:56.658Z,1.13
2018-12-24T15:04:22.650Z,1.43
2018-12-24T15:06:49.369Z,1.53
2018-12-24T15:09:15.335Z,1.40
2018-12-24T15:11:41.324Z,1.07
2018-12-24T15:14:09.264Z,1.30
2018-12-24T15:16:35.945Z,1.37
2018-12-24T15:19:01.232Z,1.30
2018-12-24T15:21:27.979Z,1.27
2018-12-24T15:23:54.656Z,1.67
2018-12-24T15:26:20.606Z,1.30
2018-12-24T15:28:46.573Z,1.80
2018-12-24T15:31:13.275Z,1.30
2018-12-24T15:33:39.344Z,1.33
2018-12-24T15:36:05.297Z,1.50
2018-12-24T15:38:31.319Z,1.30
2018-12-24T15:40:57.290Z,1.60
2018-12-24T15:43:23.233Z,1.57
2018-12-24T15:45:49.210Z,1.40
2018-12-24T15:48:15.179Z,1.63
2018-12-24T15:50:41.176Z,1.37
2018-12-24T15:53:07.883Z,1.63
2018-12-24T15:55:33.875Z,1.87
2018-12-24T15:57:59.831Z,1.63
2018-12-24T16:00:25.824Z,1.60
2018-12-24T16:02:51.796Z,1.47
2018-12-24T16:05:17.743Z,1.63
2018-12-24T16:07:44.464Z,1.40
2018-12-24T16:10:10.422Z,1.73
2018-12-24T16:12:36.408Z,1.50
2018-12-24T16:15:02.372Z,1.03
2018-12-24T16:17:28.356Z,1.37
2018-12-24T16:19:54.300Z,1.97
2018-12-24T16:22:20.991Z,1.07
2018-12-24T16:24:46.963Z,1.43
2018-12-24T16:27:13.668Z,1.33
2018-12-24T16:29:39.657Z,1.67
2018-12-24T16:32:05.601Z,1.40
2018-12-24T16:34:31.577Z,1.40
2018-12-24T16:36:57.520Z,1.20
2018-12-24T16:39:23.465Z,1.47
2018-12-24T16:41:49.461Z,1.47
2018-12-24T16:44:15.428Z,1.50
2018-12-24T16:46:41.409Z,1.20
2018-12-24T16:49:07.371Z,0.93
2018-12-24T16:51:33.353Z,1.00
2018-12-24T16:53:59.299Z,0.90
2018-12-24T16:56:25.251Z,1.03
2018-12-24T16:58:51.264Z,0.90
2018-12-24T17:01:17.221Z,0.87
2018-12-24T17:03:43.201Z,0.80
2018-12-24T17:06:09.165Z,0.87
2018-12-24T17:08:35.870Z,0.93
2018-12-24T17:11:01.841Z,0.90
2018-12-24T17:13:27.829Z,0.90
2018-12-24T17:15:53.774Z,0.93
2018-12-24T17:18:20.484Z,1.20
2018-12-24T17:20:46.451Z,0.70
2018-12-24T17:23:12.394Z,1.10
2018-12-24T17:25:38.372Z,0.87
2018-12-24T17:28:05.062Z,0.80
2018-12-24T17:30:31.039Z,0.80
2018-12-24T17:32:57.713Z,1.00
2018-12-24T17:35:23.807Z,0.97
2018-12-24T17:37:49.777Z,1.50
2018-12-24T17:40:15.742Z,1.40
2018-12-24T17:42:42.447Z,1.23
2018-12-24T17:45:08.420Z,1.70
2018-12-24T17:47:34.399Z,1.73
2018-12-24T17:50:00.344Z,1.50
2018-12-24T17:52:27.078Z,1.77
2018-12-24T17:54:53.794Z,1.73
2018-12-24T17:57:20.519Z,1.63
2018-12-24T17:59:46.467Z,1.90
2018-12-24T18:02:12.412Z,1.73
2018-12-24T18:04:38.424Z,1.47
2018-12-24T18:07:05.118Z,1.37
2018-12-24T18:09:31.094Z,1.03
2018-12-24T18:11:57.037Z,0.83
2018-12-24T18:14:23.042Z,1.17
2018-12-24T18:16:49.738Z,1.30
2018-12-24T18:19:15.682Z,1.10
2018-12-24T18:21:41.668Z,1.10
2018-12-24T18:24:07.686Z,0.80
2018-12-24T18:26:33.673Z,0.73
2018-12-24T18:29:00.385Z,1.00
2018-12-24T18:31:26.355Z,1.00
2018-12-24T18:33:52.319Z,0.80
2018-12-24T18:36:18.274Z,1.07
2018-12-24T18:38:44.256Z,0.77
2018-12-24T18:41:10.203Z,0.80
2018-12-24T18:43:36.167Z,1.00
2018-12-24T18:46:02.102Z,0.80
2018-12-24T18:48:28.083Z,0.80
2018-12-24T18:50:54.794Z,0.73
2018-12-24T18:53:20.786Z,0.70
2018-12-24T18:55:46.735Z,0.53
2018-12-24T18:58:12.719Z,0.53
2018-12-24T19:00:38.683Z,0.80
2018-12-24T19:03:04.660Z,0.57
2018-12-24T19:05:30.637Z,0.70
2018-12-24T19:07:56.592Z,0.60
2018-12-24T19:10:23.319Z,0.83
2018-12-24T19:12:49.274Z,1.00
2018-12-24T19:15:15.267Z,1.03
2018-12-24T19:17:41.976Z,0.83
2018-12-24T19:20:07.924Z,0.73
2018-12-24T19:22:34.687Z,0.90
2018-12-24T19:25:01.375Z,0.80
2018-12-24T19:27:27.372Z,1.00
2018-12-24T19:29:53.339Z,0.93
2018-12-24T19:32:19.332Z,1.00
2018-12-24T19:34:45.281Z,1.20
2018-12-24T19:37:11.255Z,1.40
2018-12-24T19:39:37.247Z,1.10
2018-12-24T19:42:03.954Z,0.90
2018-12-24T19:44:29.930Z,1.30
2018-12-24T19:46:55.887Z,1.27
2018-12-24T19:49:21.885Z,1.57
2018-12-24T19:51:47.853Z,1.23
2018-12-24T19:54:13.937Z,1.20
2018-12-24T19:56:39.850Z,1.17
2018-12-24T19:59:06.560Z,1.33
2018-12-24T20:01:32.504Z,1.27
2018-12-24T20:03:58.500Z,1.23
2018-12-24T20:06:24.440Z,1.60
2018-12-24T20:08:51.136Z,1.47
2018-12-24T20:11:17.118Z,1.23
2018-12-24T20:13:43.076Z,1.33
2018-12-24T20:16:09.041Z,1.13
2018-12-24T20:18:35.114Z,1.30
2018-12-24T20:21:01.085Z,1.60
2018-12-24T20:23:27.806Z,1.20
2018-12-24T20:25:53.754Z,1.60
2018-12-24T20:28:20.458Z,1.27
2018-12-24T20:30:46.412Z,1.60
2018-12-24T20:33:12.391Z,1.77
2018-12-24T20:35:38.335Z,1.63
2018-12-24T20:38:04.275Z,1.13
2018-12-24T20:40:30.247Z,1.50
2018-12-24T20:42:56.213Z,1.70
2018-12-24T20:45:22.195Z,1.60
2018-12-24T20:47:48.166Z,1.60
2018-12-24T20:50:14.161Z,1.70
2018-12-24T20:52:40.107Z,1.47
2018-12-24T20:55:06.084Z,1.53
2018-12-24T20:57:32.025Z,1.70
2018-12-24T20:59:58.003Z,1.80
2018-12-24T21:02:23.965Z,1.87
2018-12-24T21:04:49.926Z,1.27
2018-12-24T21:07:16.657Z,1.63
2018-12-24T21:09:42.616Z,1.60
2018-12-24T21:12:08.586Z,1.60
2018-12-24T21:14:34.521Z,1.50
2018-12-24T21:17:00.517Z,1.93
2018-12-24T21:19:26.481Z,1.83
2018-12-24T21:21:53.223Z,1.83
2018-12-24T21:24:19.214Z,1.70
2018-12-24T21:26:45.197Z,1.47
2018-12-24T21:29:11.183Z,1.40
2018-12-24T21:31:37.178Z,1.63
2018-12-24T21:34:10.188Z,1.70
2018-12-24T21:36:36.183Z,1.80
2018-12-24T21:39:02.160Z,2.40
2018-12-24T21:41:28.138Z,2.20
2018-12-24T21:43:54.140Z,1.87
2018-12-24T21:46:20.092Z,1.87
2018-12-24T21:48:46.043Z,1.70
2018-12-24T21:51:12.771Z,1.60
2018-12-24T21:53:39.460Z,1.50
2018-12-24T21:56:05.442Z,1.80
2018-12-24T21:58:32.147Z,1.47
2018-12-24T22:00:58.158Z,1.87
2018-12-24T22:03:24.116Z,1.67
2018-12-24T22:05:50.879Z,1.33
2018-12-24T22:08:17.631Z,1.97
2018-12-24T22:10:43.641Z,1.23
2018-12-24T22:13:10.353Z,1.50
2018-12-24T22:15:36.324Z,1.60
2018-12-24T22:18:02.314Z,1.67
2018-12-24T22:20:29.030Z,1.70
2018-12-24T22:22:55.045Z,1.70
2018-12-24T22:25:21.087Z,1.33
2018-12-24T22:27:47.096Z,1.67
2018-12-24T22:30:13.091Z,2.20
2018-12-24T22:32:39.049Z,1.90
2018-12-24T22:35:05.047Z,1.80
2018-12-24T22:37:31.038Z,1.73
2018-12-24T22:39:57.029Z,1.70
2018-12-24T22:42:23.019Z,1.90
2018-12-24T22:44:49.038Z,1.43
2018-12-24T22:47:15.040Z,1.93
2018-12-24T22:49:41.209Z,1.77
2018-12-24T22:52:07.388Z,1.80
2018-12-24T22:54:33.356Z,2.00
2018-12-24T22:56:59.432Z,1.83
2018-12-24T22:59:25.442Z,2.03
2018-12-24T23:01:51.458Z,2.40
2018-12-24T23:04:18.186Z,2.03
2018-12-24T23:06:44.195Z,2.10
2018-12-24T23:09:10.256Z,2.17
2018-12-24T23:11:37.010Z,1.90
2018-12-24T23:14:03.033Z,2.43
2018-12-24T23:16:29.037Z,2.10
2018-12-24T23:18:55.072Z,1.83
2018-12-24T23:21:21.775Z,1.97
2018-12-24T23:23:47.823Z,1.67
2018-12-24T23:26:13.856Z,1.90
2018-12-24T23:28:39.887Z,1.67
2018-12-24T23:31:06.110Z,1.80
2018-12-24T23:33:32.040Z,1.70
2018-12-24T23:35:58.079Z,1.50
2018-12-24T23:38:27.271Z,1.83
2018-12-24T23:40:53.361Z,1.60
2018-12-24T23:43:20.115Z,1.90
2018-12-24T23:45:46.157Z,1.53
2018-12-24T23:48:12.148Z,1.70
2018-12-24T23:50:38.179Z,2.00
2018-12-24T23:53:04.892Z,1.53
2018-12-24T23:55:30.917Z,1.40
2018-12-24T23:57:57.035Z,1.60
